Terminal Aerodrome Forecast
Issued by NWS

Home | Current Version | Previous Version | Text Only | Print | Product List | Glossary On
Versions: 1 2 3 4 5 6 7 8 9 10 11 12 13 14 15 16 17
801
FTUS42 TJSJ 041739
TAFJSJ
TAF
TJSJ 041739Z 0418/0518 06012KT P6SM VCSH SCT030 SCT070
     FM042300 12005KT P6SM FEW018 SCT030 SCT060
     FM051400 07012KT P6SM SCT025=

USA.gov is the U.S. government's official web portal to all federal, state and local government web resources and services.